Time,TemperatureF,DewpointF,PressureIn,WindDirection,WindDirectionDegrees,WindSpeedMPH,WindSpeedGustMPH,Humidity,HourlyPrecipIn,Conditions,Clouds,dailyrainin,SolarRadiationWatts/m^2,SoftwareType,DateUTC
2013-10-02 00:04:00,40.7,37.4,30.07,ENE,67,2.0,12.0,88,0.00,,,0.00,0,Wunderground v.1.15,2013-10-02 06:04:00,
2013-10-02 00:09:00,40.7,37.4,30.07,ENE,67,1.0,12.0,88,0.00,,,0.00,0,Wunderground v.1.15,2013-10-02 06:09:00,
2013-10-02 00:15:00,40.6,37.3,30.07,NW,313,1.0,12.0,88,0.00,,,0.00,0,Wunderground v.1.15,2013-10-02 06:15:00,
2013-10-02 00:21:00,40.5,37.2,30.08,East,88,1.0,12.0,88,0.00,,,0.00,0,Wunderground v.1.15,2013-10-02 06:21:00,
2013-10-02 00:27:00,40.4,37.1,30.07,ESE,117,1.0,12.0,88,0.00,,,0.00,0,Wunderground v.1.15,2013-10-02 06:27:00,
2013-10-02 00:33:00,40.3,37.0,30.08,South,169,2.0,12.0,88,0.00,,,0.00,0,Wunderground v.1.15,2013-10-02 06:33:00,
2013-10-02 00:39:00,40.3,37.0,30.08,SSW,194,3.0,12.0,88,0.00,,,0.00,0,Wunderground v.1.15,2013-10-02 06:39:00,
2013-10-02 00:45:00,40.2,36.9,30.09,ESE,110,2.0,12.0,88,0.00,,,0.00,0,Wunderground v.1.15,2013-10-02 06:45:00,
2013-10-02 00:51:00,40.2,36.9,30.09,NW,314,0.0,12.0,88,0.57,,,0.01,0,Wunderground v.1.15,2013-10-02 06:51:00,
2013-10-02 00:57:00,39.7,36.4,30.09,ESE,110,1.0,12.0,88,0.27,,,0.04,0,Wunderground v.1.15,2013-10-02 06:57:00,
2013-10-02 01:03:00,39.5,36.2,30.09,WSW,254,1.0,12.0,88,0.12,,,0.05,0,Wunderground v.1.15,2013-10-02 07:03:00,
2013-10-02 01:09:00,39.1,35.8,30.09,West,277,1.0,12.0,88,0.05,,,0.05,0,Wunderground v.1.15,2013-10-02 07:09:00,
2013-10-02 01:15:00,38.5,35.3,30.09,NNW,336,2.0,12.0,88,0.00,,,0.05,0,Wunderground v.1.15,2013-10-02 07:15:00,
2013-10-02 01:21:00,38.1,35.1,30.09,NW,309,2.0,12.0,89,0.00,,,0.05,0,Wunderground v.1.15,2013-10-02 07:21:00,
2013-10-02 01:26:00,37.8,34.8,30.09,WNW,299,1.0,12.0,89,0.00,,,0.05,0,Wunderground v.1.15,2013-10-02 07:26:00,
2013-10-02 01:32:00,37.4,34.5,30.10,WNW,298,1.0,12.0,89,0.00,,,0.05,0,Wunderground v.1.15,2013-10-02 07:32:00,
2013-10-02 01:38:00,37.2,34.5,30.10,NW,317,1.0,12.0,90,0.00,,,0.05,0,Wunderground v.1.15,2013-10-02 07:38:00,
2013-10-02 01:44:00,37.0,34.3,30.11,NW,317,1.0,12.0,90,0.00,,,0.05,0,Wunderground v.1.15,2013-10-02 07:44:00,
2013-10-02 01:50:00,36.8,34.1,30.11,NW,306,1.0,1.0,90,0.00,,,0.05,0,Wunderground v.1.15,2013-10-02 07:50:00,
2013-10-02 01:56:00,36.8,34.4,30.11,South,190,1.0,12.0,91,0.00,,,0.05,0,Wunderground v.1.15,2013-10-02 07:56:00,
2013-10-02 02:02:00,36.8,34.4,30.11,West,273,0.0,12.0,91,0.00,,,0.05,0,Wunderground v.1.15,2013-10-02 08:02:00,
2013-10-02 02:08:00,36.7,34.3,30.11,West,274,1.0,12.0,91,0.00,,,0.05,0,Wunderground v.1.15,2013-10-02 08:08:00,
2013-10-02 02:13:00,36.6,34.2,30.11,West,273,0.0,12.0,91,0.00,,,0.05,0,Wunderground v.1.15,2013-10-02 08:13:00,
2013-10-02 02:19:00,36.5,34.4,30.12,West,273,0.0,12.0,92,0.00,,,0.05,0,Wunderground v.1.15,2013-10-02 08:19:00,
2013-10-02 02:25:00,36.6,34.5,30.12,West,274,0.0,12.0,92,0.00,,,0.05,0,Wunderground v.1.15,2013-10-02 08:25:00,
2013-10-02 02:31:00,36.8,35.0,30.12,West,275,1.0,12.0,93,0.00,,,0.05,0,Wunderground v.1.15,2013-10-02 08:31:00,
2013-10-02 02:37:00,36.9,35.1,30.12,West,275,1.0,12.0,93,0.00,,,0.05,0,Wunderground v.1.15,2013-10-02 08:37:00,
2013-10-02 02:43:00,37.1,35.5,30.12,West,275,0.0,12.0,94,0.00,,,0.05,0,Wunderground v.1.15,2013-10-02 08:43:00,
2013-10-02 02:49:00,37.4,35.8,30.12,WNW,287,1.0,12.0,94,0.00,,,0.05,0,Wunderground v.1.15,2013-10-02 08:49:00,
2013-10-02 02:54:00,37.5,35.9,30.12,SSW,197,1.0,12.0,94,0.00,,,0.05,0,Wunderground v.1.15,2013-10-02 08:54:00,
2013-10-02 03:00:00,37.7,36.1,30.12,South,173,1.0,1.0,94,0.00,,,0.05,0,Wunderground v.1.15,2013-10-02 09:00:00,
2013-10-02 03:06:00,37.8,36.2,30.13,East,84,1.0,12.0,94,0.00,,,0.05,0,Wunderground v.1.15,2013-10-02 09:06:00,
2013-10-02 03:12:00,37.9,36.3,30.13,North,355,1.0,12.0,94,0.00,,,0.05,0,Wunderground v.1.15,2013-10-02 09:12:00,
2013-10-02 03:18:00,38.0,36.4,30.13,ENE,63,1.0,12.0,94,0.00,,,0.06,0,Wunderground v.1.15,2013-10-02 09:18:00,
2013-10-02 03:24:00,38.1,36.5,30.12,ENE,64,0.0,12.0,94,0.00,,,0.06,0,Wunderground v.1.15,2013-10-02 09:24:00,
2013-10-02 03:30:00,38.1,36.3,30.13,WNW,294,1.0,12.0,93,0.00,,,0.06,0,Wunderground v.1.15,2013-10-02 09:30:00,
2013-10-02 03:36:00,38.2,36.4,30.13,WNW,294,1.0,12.0,93,0.00,,,0.06,0,Wunderground v.1.15,2013-10-02 09:36:00,
2013-10-02 03:42:00,38.2,36.4,30.13,SW,222,1.0,12.0,93,0.00,,,0.06,0,Wunderground v.1.15,2013-10-02 09:42:00,
2013-10-02 03:48:00,38.2,36.4,30.13,SSW,198,1.0,12.0,93,0.00,,,0.07,0,Wunderground v.1.15,2013-10-02 09:48:00,
2013-10-02 03:54:00,38.2,36.4,30.13,WNW,297,1.0,12.0,93,0.00,,,0.07,0,Wunderground v.1.15,2013-10-02 09:54:00,
2013-10-02 04:00:00,38.2,36.4,30.13,NW,306,2.0,2.0,93,0.00,,,0.07,0,Wunderground v.1.15,2013-10-02 10:00:00,
2013-10-02 04:06:00,38.2,36.1,30.13,SW,226,2.0,12.0,92,0.00,,,0.07,0,Wunderground v.1.15,2013-10-02 10:06:00,
2013-10-02 04:11:00,38.3,36.2,30.14,SSE,165,1.0,12.0,92,0.00,,,0.07,0,Wunderground v.1.15,2013-10-02 10:11:00,
2013-10-02 04:17:00,38.3,36.2,30.14,SSW,207,1.0,12.0,92,0.00,,,0.07,0,Wunderground v.1.15,2013-10-02 10:17:00,
2013-10-02 04:23:00,38.4,36.3,30.14,South,183,2.0,12.0,92,0.00,,,0.07,0,Wunderground v.1.15,2013-10-02 10:23:00,
2013-10-02 04:29:00,38.4,36.3,30.13,WNW,298,2.0,12.0,92,0.00,,,0.07,0,Wunderground v.1.15,2013-10-02 10:29:00,
2013-10-02 04:35:00,38.4,36.3,30.14,SW,227,0.0,12.0,92,0.00,,,0.07,0,Wunderground v.1.15,2013-10-02 10:35:00,
2013-10-02 04:41:00,38.4,36.3,30.14,SSW,213,0.0,12.0,92,0.00,,,0.07,0,Wunderground v.1.15,2013-10-02 10:41:00,
2013-10-02 04:47:00,38.4,36.3,30.13,West,275,1.0,12.0,92,0.00,,,0.07,0,Wunderground v.1.15,2013-10-02 10:47:00,
2013-10-02 04:53:00,38.5,36.4,30.13,WSW,240,1.0,12.0,92,0.00,,,0.07,0,Wunderground v.1.15,2013-10-02 10:53:00,
2013-10-02 04:59:00,38.5,36.4,30.14,SSW,199,1.0,12.0,92,0.00,,,0.07,0,Wunderground v.1.15,2013-10-02 10:59:00,
2013-10-02 05:05:00,38.5,36.4,30.14,SE,141,1.0,12.0,92,0.00,,,0.07,0,Wunderground v.1.15,2013-10-02 11:05:00,
2013-10-02 05:11:00,38.5,36.1,30.14,WNW,288,1.0,12.0,91,0.00,,,0.07,0,Wunderground v.1.15,2013-10-02 11:11:00,
2013-10-02 05:17:00,38.5,36.4,30.14,WNW,283,1.0,12.0,92,0.00,,,0.07,0,Wunderground v.1.15,2013-10-02 11:17:00,
2013-10-02 05:23:00,38.5,36.1,30.14,WNW,283,0.0,12.0,91,0.00,,,0.07,0,Wunderground v.1.15,2013-10-02 11:23:00,
2013-10-02 05:29:00,38.5,36.4,30.14,WNW,283,0.0,12.0,92,0.00,,,0.07,0,Wunderground v.1.15,2013-10-02 11:29:00,
2013-10-02 05:34:00,38.5,36.4,30.14,WNW,283,0.0,12.0,92,0.00,,,0.07,0,Wunderground v.1.15,2013-10-02 11:34:00,
2013-10-02 05:40:00,38.5,36.4,30.15,WNW,283,0.0,12.0,92,0.00,,,0.07,0,Wunderground v.1.15,2013-10-02 11:40:00,
2013-10-02 05:46:00,38.3,36.2,30.15,WNW,287,0.0,12.0,92,0.00,,,0.07,0,Wunderground v.1.15,2013-10-02 11:46:00,
2013-10-02 05:52:00,38.2,36.1,30.15,WSW,242,1.0,12.0,92,0.00,,,0.07,0,Wunderground v.1.15,2013-10-02 11:52:00,
2013-10-02 05:58:00,38.2,36.1,30.15,WSW,239,1.0,12.0,92,0.00,,,0.07,0,Wunderground v.1.15,2013-10-02 11:58:00,
2013-10-02 06:04:00,38.2,36.1,30.15,SSE,149,1.0,12.0,92,0.00,,,0.07,0,Wunderground v.1.15,2013-10-02 12:04:00,
2013-10-02 06:10:00,38.2,36.1,30.15,WSW,254,1.0,12.0,92,0.00,,,0.07,0,Wunderground v.1.15,2013-10-02 12:10:00,
2013-10-02 06:16:00,38.2,35.8,30.15,South,174,2.0,12.0,91,0.00,,,0.07,0,Wunderground v.1.15,2013-10-02 12:16:00,
2013-10-02 06:22:00,38.3,35.9,30.15,WNW,289,3.0,12.0,91,0.00,,,0.07,0,Wunderground v.1.15,2013-10-02 12:22:00,
2013-10-02 06:28:00,38.3,35.9,30.15,WNW,297,2.0,12.0,91,0.00,,,0.07,0,Wunderground v.1.15,2013-10-02 12:28:00,
2013-10-02 06:34:00,38.3,35.9,30.16,West,270,1.0,12.0,91,0.00,,,0.07,0,Wunderground v.1.15,2013-10-02 12:34:00,
2013-10-02 06:40:00,38.3,35.9,30.16,West,263,2.0,2.0,91,0.00,,,0.07,0,Wunderground v.1.15,2013-10-02 12:40:00,
2013-10-02 06:46:00,38.2,35.8,30.15,WSW,239,1.0,12.0,91,0.00,,,0.07,0,Wunderground v.1.15,2013-10-02 12:46:00,
2013-10-02 06:51:00,38.2,35.8,30.15,WSW,239,0.0,12.0,91,0.00,,,0.07,0,Wunderground v.1.15,2013-10-02 12:51:00,
2013-10-02 06:57:00,38.0,35.6,30.15,WSW,244,0.0,12.0,91,0.00,,,0.07,0,Wunderground v.1.15,2013-10-02 12:57:00,
2013-10-02 07:03:00,37.9,35.5,30.15,NW,304,1.0,12.0,91,0.00,,,0.07,0,Wunderground v.1.15,2013-10-02 13:03:00,
2013-10-02 07:09:00,37.8,35.4,30.15,WNW,303,1.0,12.0,91,0.00,,,0.07,0,Wunderground v.1.15,2013-10-02 13:09:00,
2013-10-02 07:15:00,37.5,35.1,30.15,South,184,1.0,12.0,91,0.00,,,0.07,0,Wunderground v.1.15,2013-10-02 13:15:00,
2013-10-02 07:21:00,37.4,35.0,30.15,NNW,329,1.0,12.0,91,0.00,,,0.07,0,Wunderground v.1.15,2013-10-02 13:21:00,
2013-10-02 07:27:00,37.3,34.9,30.16,SW,219,1.0,12.0,91,0.00,,,0.07,0,Wunderground v.1.15,2013-10-02 13:27:00,
2013-10-02 07:33:00,37.4,35.3,30.16,WNW,299,2.0,12.0,92,0.00,,,0.07,0,Wunderground v.1.15,2013-10-02 13:33:00,
2013-10-02 07:39:00,37.4,35.3,30.16,SSW,213,1.0,12.0,92,0.00,,,0.07,0,Wunderground v.1.15,2013-10-02 13:39:00,
2013-10-02 07:45:00,37.4,35.3,30.16,SW,221,0.0,12.0,92,0.00,,,0.07,0,Wunderground v.1.15,2013-10-02 13:45:00,
2013-10-02 07:51:00,37.4,35.3,30.16,SW,222,1.0,5.0,92,0.00,,,0.07,5,Wunderground v.1.15,2013-10-02 13:51:00,
2013-10-02 07:57:00,37.4,35.3,30.16,South,172,1.0,12.0,92,0.00,,,0.07,5,Wunderground v.1.15,2013-10-02 13:57:00,
2013-10-02 08:03:00,37.3,35.2,30.16,South,172,1.0,12.0,92,0.00,,,0.07,9,Wunderground v.1.15,2013-10-02 14:03:00,
2013-10-02 08:09:00,37.2,35.1,30.16,SE,134,1.0,12.0,92,0.00,,,0.07,11,Wunderground v.1.15,2013-10-02 14:09:00,
2013-10-02 08:14:00,37.2,35.1,30.16,SE,134,1.0,12.0,92,0.00,,,0.07,19,Wunderground v.1.15,2013-10-02 14:14:00,
2013-10-02 08:20:00,37.2,35.1,30.16,SE,137,0.0,12.0,92,0.00,,,0.07,16,Wunderground v.1.15,2013-10-02 14:20:00,
2013-10-02 08:26:00,37.2,35.1,30.16,West,263,0.0,12.0,92,0.00,,,0.07,23,Wunderground v.1.15,2013-10-02 14:26:00,
2013-10-02 08:32:00,37.2,35.1,30.16,West,263,0.0,12.0,92,0.00,,,0.07,21,Wunderground v.1.15,2013-10-02 14:32:00,
2013-10-02 08:38:00,37.1,35.0,30.16,West,263,0.0,12.0,92,0.00,,,0.07,26,Wunderground v.1.15,2013-10-02 14:38:00,
2013-10-02 08:44:00,37.1,35.0,30.16,West,263,0.0,12.0,92,0.00,,,0.07,28,Wunderground v.1.15,2013-10-02 14:44:00,
2013-10-02 08:50:00,37.0,35.2,30.17,West,263,0.0,12.0,93,0.00,,,0.07,37,Wunderground v.1.15,2013-10-02 14:50:00,
2013-10-02 10:00:00,39.1,37.2,30.17,East,98,0.0,12.0,93,0.00,,,0.07,97,Wunderground v.1.15,2013-10-02 16:00:00,
2013-10-02 10:04:00,39.1,37.2,30.17,East,98,0.0,12.0,93,0.00,,,0.07,230,Wunderground v.1.15,2013-10-02 16:04:00,
2013-10-02 10:10:00,39.4,37.5,30.18,East,98,0.0,12.0,93,0.00,,,0.07,244,Wunderground v.1.15,2013-10-02 16:10:00,
2013-10-02 10:16:00,39.6,37.5,30.18,East,98,0.0,12.0,92,0.00,,,0.07,116,Wunderground v.1.15,2013-10-02 16:16:00,
2013-10-02 10:22:00,39.8,37.7,30.17,East,98,0.0,12.0,92,0.00,,,0.07,114,Wunderground v.1.15,2013-10-02 16:22:00,
2013-10-02 10:28:00,40.0,37.6,30.17,East,98,0.0,12.0,91,0.00,,,0.07,107,Wunderground v.1.15,2013-10-02 16:28:00,
2013-10-02 10:34:00,40.2,37.8,30.17,East,98,0.0,12.0,91,0.00,,,0.07,128,Wunderground v.1.15,2013-10-02 16:34:00,
2013-10-02 10:40:00,40.4,37.7,30.17,East,98,1.0,1.0,90,0.00,,,0.07,239,Wunderground v.1.15,2013-10-02 16:40:00,
2013-10-02 10:45:00,40.6,37.6,30.17,East,98,0.0,12.0,89,0.00,,,0.07,146,Wunderground v.1.15,2013-10-02 16:45:00,
2013-10-02 10:50:00,41.0,37.7,30.17,East,98,0.0,12.0,88,0.00,,,0.07,571,Wunderground v.1.15,2013-10-02 16:50:00,
2013-10-02 10:56:00,41.7,38.1,30.17,NE,49,1.0,12.0,87,0.00,,,0.07,599,Wunderground v.1.15,2013-10-02 16:56:00,
2013-10-02 11:02:00,42.6,39.0,30.17,NE,35,1.0,12.0,87,0.00,,,0.07,615,Wunderground v.1.15,2013-10-02 17:02:00,
2013-10-02 11:08:00,43.3,39.1,30.16,ENE,76,1.0,12.0,85,0.00,,,0.07,698,Wunderground v.1.15,2013-10-02 17:08:00,
2013-10-02 11:14:00,43.9,39.1,30.16,East,88,1.0,12.0,83,0.00,,,0.07,371,Wunderground v.1.15,2013-10-02 17:14:00,
2013-10-02 11:20:00,44.1,38.3,30.16,East,89,1.0,1.0,80,0.00,,,0.07,209,Wunderground v.1.15,2013-10-02 17:20:00,
2013-10-02 11:26:00,44.0,37.3,30.16,East,88,1.0,12.0,77,0.00,,,0.07,244,Wunderground v.1.15,2013-10-02 17:26:00,
2013-10-02 11:32:00,44.0,38.2,30.16,ESE,114,1.0,12.0,80,0.00,,,0.07,253,Wunderground v.1.15,2013-10-02 17:32:00,
2013-10-02 11:38:00,43.9,37.8,30.16,ENE,61,1.0,12.0,79,0.00,,,0.07,265,Wunderground v.1.15,2013-10-02 17:38:00,
2013-10-02 11:43:00,43.9,38.1,30.16,SW,224,1.0,12.0,80,0.00,,,0.07,788,Wunderground v.1.15,2013-10-02 17:43:00,
2013-10-02 11:49:00,44.3,37.9,30.16,ESE,114,1.0,12.0,78,0.00,,,0.07,742,Wunderground v.1.15,2013-10-02 17:49:00,
2013-10-02 11:55:00,44.7,37.6,30.16,South,173,1.0,12.0,76,0.00,,,0.07,322,Wunderground v.1.15,2013-10-02 17:55:00,
2013-10-02 12:00:00,44.7,36.9,30.16,NE,34,2.0,2.0,74,0.00,,,0.07,98,Wunderground v.1.15,2013-10-02 18:00:00,
2013-10-02 12:06:00,44.6,37.5,30.16,NNE,30,1.0,12.0,76,0.00,,,0.07,77,Wunderground v.1.15,2013-10-02 18:06:00,
2013-10-02 12:12:00,44.6,37.2,30.16,WSW,242,0.0,12.0,75,0.00,,,0.07,76,Wunderground v.1.15,2013-10-02 18:12:00,
2013-10-02 12:18:00,44.3,36.9,30.16,WSW,249,0.0,12.0,75,0.00,,,0.07,72,Wunderground v.1.15,2013-10-02 18:18:00,
2013-10-02 12:24:00,44.2,36.8,30.16,WSW,249,0.0,12.0,75,0.00,,,0.07,76,Wunderground v.1.15,2013-10-02 18:24:00,
2013-10-02 12:30:00,44.0,37.6,30.16,WSW,249,0.0,12.0,78,0.00,,,0.07,83,Wunderground v.1.15,2013-10-02 18:30:00,
2013-10-02 12:36:00,44.0,37.9,30.16,WSW,249,0.0,12.0,79,0.00,,,0.07,104,Wunderground v.1.15,2013-10-02 18:36:00,
2013-10-02 12:42:00,43.9,37.8,30.16,WSW,249,0.0,12.0,79,0.00,,,0.07,130,Wunderground v.1.15,2013-10-02 18:42:00,
2013-10-02 12:48:00,43.8,37.4,30.15,WSW,249,0.0,12.0,78,0.00,,,0.07,179,Wunderground v.1.15,2013-10-02 18:48:00,
2013-10-02 12:54:00,43.8,36.7,30.15,WSW,249,0.0,12.0,76,0.00,,,0.07,223,Wunderground v.1.15,2013-10-02 18:54:00,
2013-10-02 13:00:00,44.0,37.3,30.15,WSW,249,0.0,12.0,77,0.00,,,0.07,216,Wunderground v.1.15,2013-10-02 19:00:00,
2013-10-02 13:06:00,44.1,37.0,30.15,WSW,249,0.0,12.0,76,0.00,,,0.07,269,Wunderground v.1.15,2013-10-02 19:06:00,
2013-10-02 13:12:00,44.3,36.5,30.15,WNW,288,0.0,12.0,74,0.00,,,0.07,258,Wunderground v.1.15,2013-10-02 19:12:00,
2013-10-02 13:18:00,44.5,37.1,30.15,WNW,288,0.0,12.0,75,0.00,,,0.07,267,Wunderground v.1.15,2013-10-02 19:18:00,
2013-10-02 13:23:00,44.8,37.7,30.15,NW,323,0.0,12.0,76,0.00,,,0.07,239,Wunderground v.1.15,2013-10-02 19:23:00,
2013-10-02 13:29:00,44.9,37.5,30.15,NW,323,0.0,12.0,75,0.00,,,0.07,264,Wunderground v.1.15,2013-10-02 19:29:00,
2013-10-02 13:35:00,45.0,37.2,30.14,ESE,109,0.0,12.0,74,0.00,,,0.07,450,Wunderground v.1.15,2013-10-02 19:35:00,
2013-10-02 13:41:00,45.3,37.5,30.14,ESE,109,1.0,12.0,74,0.00,,,0.07,221,Wunderground v.1.15,2013-10-02 19:41:00,
2013-10-02 13:47:00,45.3,37.5,30.14,ENE,78,1.0,12.0,74,0.00,,,0.07,178,Wunderground v.1.15,2013-10-02 19:47:00,
2013-10-02 13:53:00,45.3,37.8,30.14,ENE,78,1.0,12.0,75,0.00,,,0.07,162,Wunderground v.1.15,2013-10-02 19:53:00,
2013-10-02 13:59:00,45.3,37.5,30.14,ENE,78,0.0,12.0,74,0.00,,,0.07,197,Wunderground v.1.15,2013-10-02 19:59:00,
2013-10-02 14:05:00,45.4,37.2,30.14,ENE,78,0.0,12.0,73,0.00,,,0.07,239,Wunderground v.1.15,2013-10-02 20:05:00,
2013-10-02 14:11:00,45.4,36.9,30.13,ENE,72,0.0,12.0,72,0.00,,,0.07,241,Wunderground v.1.15,2013-10-02 20:11:00,
2013-10-02 14:17:00,45.3,36.8,30.13,East,98,1.0,12.0,72,0.00,,,0.07,195,Wunderground v.1.15,2013-10-02 20:17:00,
2013-10-02 14:23:00,45.4,37.2,30.13,East,98,0.0,12.0,73,0.00,,,0.07,206,Wunderground v.1.15,2013-10-02 20:23:00,
2013-10-02 14:29:00,45.3,36.1,30.13,NE,42,0.0,12.0,70,0.00,,,0.07,181,Wunderground v.1.15,2013-10-02 20:29:00,
2013-10-02 14:35:00,45.2,36.0,30.12,NE,42,0.0,12.0,70,0.00,,,0.07,236,Wunderground v.1.15,2013-10-02 20:35:00,
2013-10-02 14:41:00,45.3,36.8,30.12,NE,42,0.0,12.0,72,0.00,,,0.07,684,Wunderground v.1.15,2013-10-02 20:41:00,
2013-10-02 14:47:00,45.7,37.2,30.11,East,98,1.0,12.0,72,0.00,,,0.07,221,Wunderground v.1.15,2013-10-02 20:47:00,
2013-10-02 14:53:00,45.9,36.7,30.11,East,98,0.0,12.0,70,0.00,,,0.07,176,Wunderground v.1.15,2013-10-02 20:53:00,
2013-10-02 14:59:00,46.0,36.8,30.11,East,98,0.0,12.0,70,0.00,,,0.07,162,Wunderground v.1.15,2013-10-02 20:59:00,
2013-10-02 15:05:00,46.1,37.6,30.11,East,98,0.0,12.0,72,0.00,,,0.07,171,Wunderground v.1.15,2013-10-02 21:05:00,
2013-10-02 15:11:00,46.2,37.3,30.11,East,98,0.0,12.0,71,0.00,,,0.07,176,Wunderground v.1.15,2013-10-02 21:11:00,
2013-10-02 15:17:00,46.3,37.0,30.10,East,98,0.0,12.0,70,0.00,,,0.07,178,Wunderground v.1.15,2013-10-02 21:17:00,
2013-10-02 15:22:00,46.3,37.0,30.10,East,98,0.0,12.0,70,0.00,,,0.07,186,Wunderground v.1.15,2013-10-02 21:22:00,
2013-10-02 15:28:00,46.3,35.9,30.10,East,98,0.0,12.0,67,0.00,,,0.07,199,Wunderground v.1.15,2013-10-02 21:28:00,
2013-10-02 15:34:00,46.3,35.6,30.10,East,98,0.0,12.0,66,0.00,,,0.07,216,Wunderground v.1.15,2013-10-02 21:34:00,
2013-10-02 15:40:00,46.3,35.6,30.09,ESE,103,0.0,12.0,66,0.00,,,0.07,239,Wunderground v.1.15,2013-10-02 21:40:00,
2013-10-02 15:46:00,46.4,36.0,30.09,ESE,109,0.0,12.0,67,0.00,,,0.07,272,Wunderground v.1.15,2013-10-02 21:46:00,
2013-10-02 15:52:00,46.4,35.7,30.09,ESE,109,0.0,12.0,66,0.00,,,0.07,246,Wunderground v.1.15,2013-10-02 21:52:00,
2013-10-02 15:58:00,46.4,34.9,30.09,ESE,109,0.0,12.0,64,0.00,,,0.07,332,Wunderground v.1.15,2013-10-02 21:58:00,
2013-10-02 16:04:00,46.4,35.3,30.09,ESE,109,0.0,12.0,65,0.00,,,0.07,373,Wunderground v.1.15,2013-10-02 22:04:00,
2013-10-02 16:10:00,46.6,35.1,30.09,ESE,109,0.0,12.0,64,0.00,,,0.07,241,Wunderground v.1.15,2013-10-02 22:10:00,
2013-10-02 16:16:00,46.8,34.5,30.08,ESE,109,0.0,12.0,62,0.00,,,0.07,160,Wunderground v.1.15,2013-10-02 22:16:00,
2013-10-02 16:22:00,46.9,35.0,30.08,NNW,331,0.0,12.0,63,0.00,,,0.07,123,Wunderground v.1.15,2013-10-02 22:22:00,
2013-10-02 16:28:00,47.0,36.2,30.08,ENE,59,0.0,12.0,66,0.00,,,0.07,91,Wunderground v.1.15,2013-10-02 22:28:00,
2013-10-02 16:34:00,47.1,35.5,30.08,ENE,59,0.0,12.0,64,0.00,,,0.07,77,Wunderground v.1.15,2013-10-02 22:34:00,
2013-10-02 16:40:00,47.0,35.8,30.08,ENE,59,0.0,12.0,65,0.00,,,0.07,83,Wunderground v.1.15,2013-10-02 22:40:00,
2013-10-02 16:46:00,47.0,35.8,30.08,ESE,105,0.0,12.0,65,0.00,,,0.07,91,Wunderground v.1.15,2013-10-02 22:46:00,
2013-10-02 16:52:00,47.0,35.8,30.08,ESE,105,0.0,12.0,65,0.00,,,0.07,90,Wunderground v.1.15,2013-10-02 22:52:00,
2013-10-02 16:58:00,47.0,36.6,30.08,ESE,105,0.0,12.0,67,0.00,,,0.07,74,Wunderground v.1.15,2013-10-02 22:58:00,
2013-10-02 17:04:00,46.9,36.5,30.08,ESE,105,0.0,12.0,67,0.00,,,0.07,79,Wunderground v.1.15,2013-10-02 23:04:00,
2013-10-02 17:10:00,46.8,36.0,30.08,ESE,105,0.0,12.0,66,0.00,,,0.07,67,Wunderground v.1.15,2013-10-02 23:10:00,
2013-10-02 17:16:00,46.6,34.7,30.08,ENE,58,0.0,12.0,63,0.00,,,0.07,84,Wunderground v.1.15,2013-10-02 23:16:00,
2013-10-02 17:21:00,46.5,35.0,30.08,ENE,58,0.0,12.0,64,0.00,,,0.07,113,Wunderground v.1.15,2013-10-02 23:21:00,
2013-10-02 17:27:00,46.3,34.4,30.08,ENE,59,0.0,12.0,63,0.00,,,0.07,72,Wunderground v.1.15,2013-10-02 23:27:00,
2013-10-02 17:33:00,46.3,35.9,30.08,ENE,59,0.0,12.0,67,0.00,,,0.07,54,Wunderground v.1.15,2013-10-02 23:33:00,
2013-10-02 17:39:00,46.4,38.9,30.08,ENE,59,0.0,12.0,75,0.00,,,0.07,39,Wunderground v.1.15,2013-10-02 23:39:00,
2013-10-02 17:45:00,46.2,38.4,30.08,ENE,59,0.0,12.0,74,0.00,,,0.07,42,Wunderground v.1.15,2013-10-02 23:45:00,
2013-10-02 17:49:00,45.9,38.4,30.08,ENE,59,0.0,12.0,75,0.00,,,0.07,47,Wunderground v.1.15,2013-10-02 23:49:00,
2013-10-02 17:55:00,45.3,38.2,30.08,ENE,58,0.0,12.0,76,0.00,,,0.07,51,Wunderground v.1.15,2013-10-02 23:55:00,
2013-10-02 18:01:00,44.5,37.4,30.08,ENE,57,0.0,12.0,76,0.00,,,0.07,46,Wunderground v.1.15,2013-10-03 00:01:00,
2013-10-02 18:07:00,43.7,37.6,30.08,ENE,57,0.0,12.0,79,0.00,,,0.07,37,Wunderground v.1.15,2013-10-03 00:07:00,
2013-10-02 18:12:00,43.0,36.9,30.08,ENE,57,0.0,12.0,79,0.00,,,0.07,32,Wunderground v.1.15,2013-10-03 00:12:00,
2013-10-02 18:18:00,42.2,36.5,30.07,ENE,57,1.0,12.0,80,0.00,,,0.07,26,Wunderground v.1.15,2013-10-03 00:18:00,
2013-10-02 18:24:00,41.5,36.1,30.07,ENE,57,1.0,12.0,81,0.00,,,0.07,23,Wunderground v.1.15,2013-10-03 00:24:00,
2013-10-02 18:30:00,40.9,35.5,30.07,SW,229,1.0,12.0,81,0.00,,,0.07,19,Wunderground v.1.15,2013-10-03 00:30:00,
2013-10-02 18:36:00,40.4,35.3,30.07,SW,232,1.0,12.0,82,0.00,,,0.07,18,Wunderground v.1.15,2013-10-03 00:36:00,
2013-10-02 18:42:00,39.9,35.2,30.08,WSW,245,1.0,12.0,83,0.00,,,0.07,16,Wunderground v.1.15,2013-10-03 00:42:00,
2013-10-02 18:48:00,39.5,34.8,30.07,WSW,248,1.0,12.0,83,0.00,,,0.07,14,Wunderground v.1.15,2013-10-03 00:48:00,
2013-10-02 18:54:00,39.0,34.6,30.07,WSW,248,1.0,12.0,84,0.00,,,0.07,12,Wunderground v.1.15,2013-10-03 00:54:00,
2013-10-02 18:59:00,38.6,34.2,30.07,WSW,248,1.0,12.0,84,0.00,,,0.07,9,Wunderground v.1.15,2013-10-03 00:59:00,
2013-10-02 19:05:00,38.2,34.1,30.07,WSW,248,1.0,12.0,85,0.00,,,0.07,5,Wunderground v.1.15,2013-10-03 01:05:00,
2013-10-02 19:11:00,37.9,33.8,30.07,WSW,248,1.0,12.0,85,0.00,,,0.07,0,Wunderground v.1.15,2013-10-03 01:11:00,
2013-10-02 19:17:00,37.6,33.8,30.07,WSW,248,1.0,12.0,86,0.00,,,0.07,0,Wunderground v.1.15,2013-10-03 01:17:00,
2013-10-02 19:23:00,37.2,33.4,30.07,WSW,248,1.0,12.0,86,0.00,,,0.07,0,Wunderground v.1.15,2013-10-03 01:23:00,
2013-10-02 19:29:00,36.8,33.3,30.07,WSW,248,1.0,12.0,87,0.00,,,0.07,0,Wunderground v.1.15,2013-10-03 01:29:00,
2013-10-02 19:35:00,36.5,33.0,30.08,WSW,248,0.0,12.0,87,0.00,,,0.07,0,Wunderground v.1.15,2013-10-03 01:35:00,
2013-10-02 19:41:00,36.3,32.8,30.08,WSW,248,0.0,12.0,87,0.00,,,0.07,0,Wunderground v.1.15,2013-10-03 01:41:00,
2013-10-02 19:47:00,36.0,32.8,30.08,WSW,248,0.0,12.0,88,0.00,,,0.07,0,Wunderground v.1.15,2013-10-03 01:47:00,
2013-10-02 19:52:00,35.7,32.5,30.07,WSW,248,0.0,12.0,88,0.00,,,0.07,0,Wunderground v.1.15,2013-10-03 01:52:00,
2013-10-02 19:58:00,35.3,32.1,30.07,WSW,248,1.0,12.0,88,0.00,,,0.07,0,Wunderground v.1.15,2013-10-03 01:58:00,
2013-10-02 20:04:00,35.0,32.1,30.07,WSW,248,1.0,12.0,89,0.00,,,0.07,0,Wunderground v.1.15,2013-10-03 02:04:00,
2013-10-02 20:09:00,34.8,31.9,30.07,WSW,248,0.0,12.0,89,0.00,,,0.07,0,Wunderground v.1.15,2013-10-03 02:09:00,
2013-10-02 20:14:00,34.5,31.6,30.07,WSW,248,0.0,12.0,89,0.00,,,0.07,0,Wunderground v.1.15,2013-10-03 02:14:00,
2013-10-02 20:20:00,34.4,31.8,30.08,WSW,248,0.0,12.0,90,0.00,,,0.07,0,Wunderground v.1.15,2013-10-03 02:20:00,
2013-10-02 20:26:00,34.4,31.8,30.08,WSW,248,0.0,12.0,90,0.00,,,0.07,0,Wunderground v.1.15,2013-10-03 02:26:00,
2013-10-02 20:32:00,34.3,31.9,30.08,WSW,248,1.0,12.0,91,0.00,,,0.07,0,Wunderground v.1.15,2013-10-03 02:32:00,
2013-10-02 20:38:00,34.1,31.7,30.08,WSW,248,1.0,12.0,91,0.00,,,0.07,0,Wunderground v.1.15,2013-10-03 02:38:00,
2013-10-02 20:43:00,33.9,31.6,30.08,WSW,248,0.0,12.0,91,0.00,,,0.07,0,Wunderground v.1.15,2013-10-03 02:43:00,
2013-10-02 20:49:00,33.8,31.5,30.08,WSW,248,1.0,12.0,91,0.00,,,0.07,0,Wunderground v.1.15,2013-10-03 02:49:00,
2013-10-02 20:55:00,33.8,31.7,30.08,WSW,248,0.0,12.0,92,0.00,,,0.07,0,Wunderground v.1.15,2013-10-03 02:55:00,
2013-10-02 21:01:00,33.7,31.6,30.09,WSW,248,1.0,12.0,92,0.00,,,0.07,0,Wunderground v.1.15,2013-10-03 03:01:00,
2013-10-02 21:06:00,33.6,31.5,30.09,WSW,248,1.0,12.0,92,0.00,,,0.07,0,Wunderground v.1.15,2013-10-03 03:06:00,
2013-10-02 21:12:00,33.4,31.3,30.08,WSW,248,1.0,12.0,92,0.00,,,0.07,0,Wunderground v.1.15,2013-10-03 03:12:00,
2013-10-02 21:18:00,33.3,31.2,30.09,WSW,248,1.0,12.0,92,0.00,,,0.07,0,Wunderground v.1.15,2013-10-03 03:18:00,
2013-10-02 21:24:00,33.2,31.1,30.09,WSW,248,1.0,12.0,92,0.00,,,0.07,0,Wunderground v.1.15,2013-10-03 03:24:00,
2013-10-02 21:30:00,33.0,31.2,30.09,WSW,248,1.0,1.0,93,0.00,,,0.07,0,Wunderground v.1.15,2013-10-03 03:30:00,
2013-10-02 21:36:00,32.9,30.8,30.09,WSW,248,1.0,12.0,92,0.00,,,0.07,0,Wunderground v.1.15,2013-10-03 03:36:00,
2013-10-02 21:42:00,32.8,31.0,30.09,WSW,248,1.0,12.0,93,0.00,,,0.07,0,Wunderground v.1.15,2013-10-03 03:42:00,
2013-10-02 21:48:00,32.7,30.9,30.09,WSW,248,1.0,12.0,93,0.00,,,0.07,0,Wunderground v.1.15,2013-10-03 03:48:00,
2013-10-02 21:54:00,32.6,30.8,30.09,WSW,248,1.0,12.0,93,0.00,,,0.07,0,Wunderground v.1.15,2013-10-03 03:54:00,
2013-10-02 22:00:00,32.5,30.7,30.09,WSW,248,1.0,1.0,93,0.00,,,0.07,0,Wunderground v.1.15,2013-10-03 04:00:00,
2013-10-02 22:01:00,32.5,30.7,30.09,WSW,248,1.0,12.0,93,0.00,,,0.07,0,Wunderground v.1.15,2013-10-03 04:01:00,
2013-10-02 22:02:00,32.4,30.6,30.09,WSW,248,1.0,12.0,93,0.00,,,0.07,0,Wunderground v.1.15,2013-10-03 04:02:00,
2013-10-02 22:03:00,32.4,30.6,30.09,WSW,248,0.0,12.0,93,0.00,,,0.07,0,Wunderground v.1.15,2013-10-03 04:03:00,
2013-10-02 22:06:00,32.4,30.6,30.09,WSW,248,0.0,12.0,93,0.00,,,0.07,0,Wunderground v.1.15,2013-10-03 04:06:00,
2013-10-02 22:08:00,32.4,30.6,30.09,WSW,248,0.0,12.0,93,0.00,,,0.07,0,Wunderground v.1.15,2013-10-03 04:08:00,
2013-10-02 22:13:00,32.4,30.6,30.09,WSW,248,0.0,12.0,93,0.00,,,0.07,0,Wunderground v.1.15,2013-10-03 04:13:00,
2013-10-02 22:19:00,32.2,30.4,30.09,WSW,248,0.0,12.0,93,0.00,,,0.07,0,Wunderground v.1.15,2013-10-03 04:19:00,
2013-10-02 22:25:00,32.1,30.3,30.09,WSW,248,0.0,12.0,93,0.00,,,0.07,0,Wunderground v.1.15,2013-10-03 04:25:00,
2013-10-02 22:31:00,32.0,30.2,30.10,WSW,248,0.0,12.0,93,0.00,,,0.07,0,Wunderground v.1.15,2013-10-03 04:31:00,
2013-10-02 22:37:00,32.0,30.5,30.10,WSW,248,1.0,12.0,94,0.00,,,0.07,0,Wunderground v.1.15,2013-10-03 04:37:00,
2013-10-02 22:42:00,31.9,30.4,30.10,WSW,248,1.0,12.0,94,0.00,,,0.07,0,Wunderground v.1.15,2013-10-03 04:42:00,
2013-10-02 22:48:00,31.9,30.4,30.10,WSW,248,0.0,12.0,94,0.00,,,0.07,0,Wunderground v.1.15,2013-10-03 04:48:00,
2013-10-02 22:54:00,31.8,30.3,30.10,WSW,248,1.0,12.0,94,0.00,,,0.07,0,Wunderground v.1.15,2013-10-03 04:54:00,
2013-10-02 23:00:00,31.8,30.3,30.10,WSW,248,0.0,12.0,94,0.00,,,0.07,0,Wunderground v.1.15,2013-10-03 05:00:00,
2013-10-02 23:05:00,31.8,30.3,30.10,WSW,248,1.0,12.0,94,0.00,,,0.07,0,Wunderground v.1.15,2013-10-03 05:05:00,
2013-10-02 23:11:00,31.8,30.3,30.10,WSW,248,1.0,12.0,94,0.00,,,0.07,0,Wunderground v.1.15,2013-10-03 05:11:00,
2013-10-02 23:17:00,31.9,30.4,30.10,WSW,248,0.0,12.0,94,0.00,,,0.07,0,Wunderground v.1.15,2013-10-03 05:17:00,
2013-10-02 23:22:00,31.9,30.4,30.10,WSW,248,1.0,12.0,94,0.00,,,0.07,0,Wunderground v.1.15,2013-10-03 05:22:00,
2013-10-02 23:28:00,32.0,30.5,30.10,WSW,248,1.0,12.0,94,0.00,,,0.07,0,Wunderground v.1.15,2013-10-03 05:28:00,
2013-10-02 23:34:00,32.1,30.6,30.11,WSW,248,0.0,12.0,94,0.00,,,0.07,0,Wunderground v.1.15,2013-10-03 05:34:00,
2013-10-02 23:40:00,32.2,30.7,30.11,WSW,248,0.0,12.0,94,0.00,,,0.07,0,Wunderground v.1.15,2013-10-03 05:40:00,
2013-10-02 23:46:00,32.3,30.8,30.11,WSW,248,0.0,12.0,94,0.00,,,0.07,0,Wunderground v.1.15,2013-10-03 05:46:00,
2013-10-02 23:52:00,32.4,31.1,30.11,WSW,248,0.0,12.0,95,0.00,,,0.07,0,Wunderground v.1.15,2013-10-03 05:52:00,
2013-10-02 23:58:00,32.4,31.1,30.11,WSW,248,0.0,12.0,95,0.00,,,0.07,0,Wunderground v.1.15,2013-10-03 05:58:00,